createdAt,value
2018-06-01T00:00:29.862Z,86.55
2018-06-01T00:01:29.870Z,86.43
2018-06-01T00:02:29.843Z,86.87
2018-06-01T00:03:29.854Z,87.28
2018-06-01T00:04:29.912Z,86.33
2018-06-01T00:05:29.858Z,86.49
2018-06-01T00:06:29.881Z,86.99
2018-06-01T00:07:29.875Z,86.31
2018-06-01T00:08:29.851Z,86.91
2018-06-01T00:09:29.869Z,86.54
2018-06-01T00:10:29.858Z,86.46
2018-06-01T00:11:29.887Z,86.92
2018-06-01T00:12:29.917Z,87.6
2018-06-01T00:13:29.879Z,86.43
2018-06-01T00:14:29.883Z,86.71
2018-06-01T00:15:29.968Z,86.61
2018-06-01T00:16:29.883Z,86.66
2018-06-01T00:17:29.924Z,86.97
2018-06-01T00:18:29.970Z,86.65
2018-06-01T00:19:29.909Z,86.21
2018-06-01T00:20:29.868Z,85.73
2018-06-01T00:21:29.908Z,86.33
2018-06-01T00:22:30.047Z,86.08
2018-06-01T00:23:29.979Z,86.48
2018-06-01T00:24:29.878Z,85.8
2018-06-01T00:25:29.910Z,86.39
2018-06-01T00:26:29.880Z,85.31
2018-06-01T00:27:29.914Z,85.6
2018-06-01T00:28:29.923Z,86.14
2018-06-01T00:29:29.894Z,86.57
2018-06-01T00:30:29.879Z,86.37
2018-06-01T00:31:29.888Z,85.53
2018-06-01T00:32:29.954Z,85.05
2018-06-01T00:33:29.890Z,86.41
2018-06-01T00:34:29.911Z,86.5
2018-06-01T00:35:29.962Z,87.29
2018-06-01T00:36:29.913Z,85.04
2018-06-01T00:37:29.890Z,85.23
2018-06-01T00:38:29.932Z,84.67
2018-06-01T00:39:29.963Z,84.94
2018-06-01T00:40:29.995Z,84.44
2018-06-01T00:41:29.951Z,84.87
2018-06-01T00:42:29.916Z,85.53
2018-06-01T00:43:29.888Z,85.23
2018-06-01T00:44:29.868Z,86.24
2018-06-01T00:45:29.926Z,85.7
2018-06-01T00:46:30.022Z,86.48
2018-06-01T00:47:29.894Z,85.63
2018-06-01T00:48:29.878Z,85.9
2018-06-01T00:49:30.029Z,84.82
2018-06-01T00:50:29.897Z,85.7
2018-06-01T00:51:29.904Z,85.89
2018-06-01T00:52:29.894Z,85.69
2018-06-01T00:53:29.888Z,85.75
2018-06-01T00:54:29.904Z,86.44
2018-06-01T00:55:29.907Z,86.49
2018-06-01T00:56:29.905Z,86.13
2018-06-01T00:57:29.925Z,85.14
2018-06-01T00:58:29.914Z,85.9
2018-06-01T00:59:29.939Z,85.62
2018-06-01T01:00:29.935Z,86.17
2018-06-01T01:01:29.875Z,86.38
2018-06-01T01:02:29.897Z,86.94
2018-06-01T01:03:29.909Z,86.97
2018-06-01T01:04:29.918Z,87.18
2018-06-01T01:05:29.900Z,85.97
2018-06-01T01:06:29.920Z,85.93
2018-06-01T01:07:29.902Z,86.65
2018-06-01T01:08:29.896Z,85.85
2018-06-01T01:09:29.903Z,86.22
2018-06-01T01:10:29.939Z,86.03
2018-06-01T01:11:29.922Z,86.67
2018-06-01T01:12:29.937Z,86.16
2018-06-01T01:13:29.978Z,86.39
2018-06-01T01:14:29.923Z,86.14
2018-06-01T01:15:29.904Z,86.12
2018-06-01T01:16:29.898Z,85.93
2018-06-01T01:17:29.940Z,86.09
2018-06-01T01:18:29.900Z,85.9
2018-06-01T01:19:29.903Z,85.96
2018-06-01T01:20:29.950Z,85.72
2018-06-01T01:21:29.970Z,85.92
2018-06-01T01:22:29.928Z,85.72
2018-06-01T01:23:29.909Z,85.92
2018-06-01T01:24:30.060Z,86.55
2018-06-01T01:25:30.010Z,86.05
2018-06-01T01:26:29.915Z,86.59
2018-06-01T01:27:29.921Z,85.91
2018-06-01T01:28:29.934Z,85.72
2018-06-01T01:29:29.929Z,86.71
2018-06-01T01:30:29.945Z,86.32
2018-06-01T01:31:30.040Z,85.95
2018-06-01T01:32:29.909Z,85.35
2018-06-01T01:33:29.907Z,85.66
2018-06-01T01:34:29.960Z,85.55
2018-06-01T01:35:29.923Z,85.13
2018-06-01T01:36:29.915Z,85.52
2018-06-01T01:37:29.921Z,85.68
2018-06-01T01:38:29.935Z,85.9
2018-06-01T01:39:29.941Z,86.21
2018-06-01T01:40:29.933Z,85.58
2018-06-01T01:41:29.927Z,85.84
2018-06-01T01:42:30.056Z,85.58
2018-06-01T01:43:29.917Z,86.16
2018-06-01T01:44:30.141Z,85.41
2018-06-01T01:45:29.934Z,86.21
2018-06-01T01:46:29.949Z,86.15
2018-06-01T01:47:29.941Z,85.36
2018-06-01T01:48:29.938Z,86.64
2018-06-01T01:49:29.924Z,87.62
2018-06-01T01:50:29.918Z,86.72
2018-06-01T01:51:29.954Z,86.17
2018-06-01T01:52:29.929Z,86.65
2018-06-01T01:53:29.955Z,86.92
2018-06-01T01:54:29.932Z,86.92
2018-06-01T01:55:29.948Z,87.05
2018-06-01T01:56:29.929Z,86.36
2018-06-01T01:57:29.961Z,86.94
2018-06-01T01:58:29.971Z,86.88
2018-06-01T01:59:29.977Z,87.05
2018-06-01T02:00:29.944Z,86.77
2018-06-01T02:01:29.940Z,87.04
2018-06-01T02:02:30.118Z,87.8
2018-06-01T02:03:29.958Z,86.91
2018-06-01T02:04:30.010Z,86.63
2018-06-01T02:05:30.025Z,86.97
2018-06-01T02:06:29.932Z,87.36
2018-06-01T02:07:29.929Z,87.42
2018-06-01T02:08:29.942Z,87.5
2018-06-01T02:09:29.996Z,87.26
2018-06-01T02:10:30.315Z,87.61
2018-06-01T02:11:30.021Z,87.36
2018-06-01T02:12:30.008Z,87.03
2018-06-01T02:13:29.977Z,87.01
2018-06-01T02:14:29.982Z,87.14
2018-06-01T02:15:29.962Z,86.9
2018-06-01T02:16:29.986Z,87.17
2018-06-01T02:17:29.973Z,86.84
2018-06-01T02:18:29.991Z,86.78
2018-06-01T02:19:29.979Z,87.39
2018-06-01T02:20:30.099Z,87.55
2018-06-01T02:21:29.931Z,87.95
2018-06-01T02:22:29.944Z,87.62
2018-06-01T02:23:29.944Z,87.65
2018-06-01T02:24:29.948Z,88.44
2018-06-01T02:25:29.973Z,87.78
2018-06-01T02:26:29.973Z,87.54
2018-06-01T02:27:29.980Z,88.03
2018-06-01T02:28:29.977Z,87.83
2018-06-01T02:29:29.968Z,87.3
2018-06-01T02:30:29.992Z,88.52
2018-06-01T02:31:30.010Z,87.88
2018-06-01T02:32:29.974Z,87.97
2018-06-01T02:33:29.978Z,88.22
2018-06-01T02:34:29.983Z,88.24
2018-06-01T02:35:30.718Z,88.96
2018-06-01T02:36:30.001Z,88.16
2018-06-01T02:37:29.943Z,88.31
2018-06-01T02:38:29.984Z,88.27
2018-06-01T02:39:30.118Z,88.65
2018-06-01T02:40:29.993Z,87.91
2018-06-01T02:41:30.020Z,88.34
2018-06-01T02:42:29.976Z,88.73
2018-06-01T02:43:29.983Z,88.01
2018-06-01T02:44:29.988Z,87.81
2018-06-01T02:45:30.006Z,88.05
2018-06-01T02:46:30.001Z,87.96
2018-06-01T02:47:30.010Z,88.19
2018-06-01T02:48:29.976Z,87.57
2018-06-01T02:49:29.987Z,88.12
2018-06-01T02:50:29.988Z,88.15
2018-06-01T02:51:29.994Z,87.74
2018-06-01T02:52:30.029Z,87.59
2018-06-01T02:53:29.997Z,87.29
2018-06-01T02:54:29.994Z,87.53
2018-06-01T02:55:29.958Z,87.33
2018-06-01T02:56:30.214Z,88.47
2018-06-01T02:57:30.005Z,87.46
2018-06-01T02:58:29.980Z,87.32
2018-06-01T02:59:30.026Z,87.12
2018-06-01T03:00:29.990Z,87.12
2018-06-01T03:01:29.993Z,87.31
2018-06-01T03:02:30.118Z,87.34
2018-06-01T03:03:29.968Z,87.42
2018-06-01T03:04:29.991Z,87.46
2018-06-01T03:05:29.996Z,86.94
2018-06-01T03:06:29.980Z,86.65
2018-06-01T03:07:30.011Z,87.57
2018-06-01T03:08:30.032Z,87.07
2018-06-01T03:09:29.992Z,87.22
2018-06-01T03:10:29.969Z,86.99
2018-06-01T03:11:30.026Z,87.25
2018-06-01T03:12:29.983Z,87.36
2018-06-01T03:13:29.972Z,87.82
2018-06-01T03:14:29.988Z,87.72
2018-06-01T03:15:30.018Z,87.26
2018-06-01T03:16:29.976Z,88.44
2018-06-01T03:17:30.008Z,88.07
2018-06-01T03:18:29.977Z,87.62
2018-06-01T03:19:29.976Z,87.78
2018-06-01T03:20:30.279Z,87.43
2018-06-01T03:21:29.990Z,87.94
2018-06-01T03:22:30.016Z,87.52
2018-06-01T03:23:30.052Z,87.49
2018-06-01T03:24:30.006Z,87.53
2018-06-01T03:25:30.064Z,87.93
2018-06-01T03:26:30.002Z,87.62
2018-06-01T03:27:30.001Z,88.1
2018-06-01T03:28:30.028Z,87.93
2018-06-01T03:29:30.012Z,87.79
2018-06-01T03:30:30.152Z,87.17
2018-06-01T03:31:29.999Z,86.97
2018-06-01T03:32:30.024Z,87.13
2018-06-01T03:33:29.974Z,87.54
2018-06-01T03:34:29.982Z,87.51
2018-06-01T03:35:29.990Z,87.95
2018-06-01T03:36:29.984Z,87.62
2018-06-01T03:37:30.030Z,88.04
2018-06-01T03:38:30.026Z,87.96
2018-06-01T03:39:30.010Z,87.91
2018-06-01T03:40:29.985Z,87.8
2018-06-01T03:41:30.001Z,88.75
2018-06-01T03:42:30.030Z,88.01
2018-06-01T03:43:29.995Z,88.05
2018-06-01T03:44:29.996Z,88.56
2018-06-01T03:45:30.016Z,88.34
2018-06-01T03:46:30.015Z,88.48
2018-06-01T03:47:30.114Z,87.55
2018-06-01T03:48:30.002Z,88.07
2018-06-01T03:49:30.029Z,88
2018-06-01T03:50:29.996Z,88.47
2018-06-01T03:51:29.997Z,88.67
2018-06-01T03:52:30.032Z,88.65
2018-06-01T03:53:30.079Z,88.55
2018-06-01T03:54:30.084Z,89.14
2018-06-01T03:55:30.051Z,89.67
2018-06-01T03:56:30.057Z,88.64
2018-06-01T03:57:30.008Z,88.8
2018-06-01T03:58:30.175Z,89.2
2018-06-01T03:59:30.044Z,89.41
2018-06-01T04:00:30.048Z,89.43
2018-06-01T04:01:30.047Z,89.19
2018-06-01T04:02:30.013Z,89.04
2018-06-01T04:03:30.028Z,89.64
2018-06-01T04:04:30.005Z,89.43
2018-06-01T04:05:30.004Z,89.9
2018-06-01T04:06:30.078Z,89.44
2018-06-01T04:07:30.111Z,89.64
2018-06-01T04:08:30.009Z,89.46
2018-06-01T04:09:30.048Z,89.45
2018-06-01T04:10:30.161Z,89.33
2018-06-01T04:11:30.020Z,89.17
2018-06-01T04:12:30.001Z,89.37
2018-06-01T04:13:30.025Z,89.28
2018-06-01T04:14:29.998Z,88.83
2018-06-01T04:15:30.045Z,89.37
2018-06-01T04:16:29.997Z,89.17
2018-06-01T04:17:30.069Z,89.22
2018-06-01T04:18:30.060Z,88.86
2018-06-01T04:19:30.005Z,88.9
2018-06-01T04:20:30.108Z,89.39
2018-06-01T04:21:30.096Z,89.31
2018-06-01T04:22:30.013Z,89.53
2018-06-01T04:23:30.030Z,89.37
2018-06-01T04:24:30.022Z,89.27
2018-06-01T04:25:30.056Z,89.23
2018-06-01T04:26:30.064Z,89.3
2018-06-01T04:27:30.089Z,89.08
2018-06-01T04:28:30.104Z,89.83
2018-06-01T04:29:30.044Z,89.29
2018-06-01T04:30:30.060Z,89.12
2018-06-01T04:31:30.009Z,89.51
2018-06-01T04:32:30.020Z,88.79
2018-06-01T04:33:30.012Z,89.33
2018-06-01T04:34:30.038Z,89.28
2018-06-01T04:35:30.038Z,88.84
2018-06-01T04:36:30.030Z,88.78
2018-06-01T04:37:30.049Z,88.71
2018-06-01T04:38:30.081Z,88.7
2018-06-01T04:39:30.074Z,88.86
2018-06-01T04:40:30.043Z,88.33
2018-06-01T04:41:30.043Z,88.95
2018-06-01T04:42:30.056Z,89.03
2018-06-01T04:43:30.063Z,89.23
2018-06-01T04:44:30.026Z,88.3
2018-06-01T04:45:30.045Z,88.68
2018-06-01T04:46:30.080Z,88.85
2018-06-01T04:47:30.013Z,88.67
2018-06-01T04:48:30.072Z,88.29
2018-06-01T04:49:30.021Z,88.26
2018-06-01T04:50:30.050Z,88.3
2018-06-01T04:51:30.023Z,88.99
2018-06-01T04:52:30.042Z,88.66
2018-06-01T04:53:30.030Z,89.01
2018-06-01T04:54:30.032Z,88.73
2018-06-01T04:55:30.063Z,88.33
2018-06-01T04:56:30.048Z,88.02
2018-06-01T04:57:30.055Z,88.24
2018-06-01T04:58:30.034Z,87.86
2018-06-01T04:59:30.065Z,88.21
2018-06-01T05:00:30.162Z,87.96
2018-06-01T05:01:30.185Z,88.17
2018-06-01T05:02:30.074Z,88.01
2018-06-01T05:03:30.029Z,88.03
2018-06-01T05:04:30.039Z,87.65
2018-06-01T05:05:30.027Z,87.62
2018-06-01T05:06:30.041Z,87.78
2018-06-01T05:07:30.058Z,88.22
2018-06-01T05:08:30.101Z,87.79
2018-06-01T05:09:30.056Z,87.58
2018-06-01T05:10:30.039Z,87.6
2018-06-01T05:11:30.065Z,87.29
2018-06-01T05:12:30.069Z,88.07
2018-06-01T05:13:30.055Z,87.83
2018-06-01T05:14:30.083Z,87.33
2018-06-01T05:15:30.149Z,87.79
2018-06-01T05:16:30.302Z,87.8
2018-06-01T05:17:30.125Z,87.94
2018-06-01T05:18:30.034Z,87.85
2018-06-01T05:19:30.081Z,88.1
2018-06-01T05:20:30.229Z,88.37
2018-06-01T05:21:30.065Z,87.78
2018-06-01T05:22:30.061Z,87.18
2018-06-01T05:23:30.058Z,87.42
2018-06-01T05:24:30.084Z,87.32
2018-06-01T05:25:30.156Z,87.87
2018-06-01T05:26:30.111Z,87.74
2018-06-01T05:27:30.085Z,87.56
2018-06-01T05:28:30.159Z,87.25
2018-06-01T05:29:30.062Z,87.46
2018-06-01T05:30:30.111Z,87.86
2018-06-01T05:31:30.070Z,87.02
2018-06-01T05:32:30.088Z,87.15
2018-06-01T05:33:30.093Z,87.31
2018-06-01T05:34:30.179Z,87.25
2018-06-01T05:35:30.098Z,87.2
2018-06-01T05:36:30.156Z,87.23
2018-06-01T05:37:30.117Z,87.51
2018-06-01T05:38:30.092Z,87.84
2018-06-01T05:39:30.335Z,87.2
2018-06-01T05:40:30.136Z,86.32
2018-06-01T05:41:30.244Z,86.6
2018-06-01T05:42:30.135Z,87.02
2018-06-01T05:43:30.090Z,87.27
2018-06-01T05:44:30.135Z,86.75
2018-06-01T05:45:30.095Z,86.26
2018-06-01T05:46:30.072Z,86.58
2018-06-01T05:47:30.696Z,86.74
2018-06-01T05:48:30.202Z,87.57
2018-06-01T05:49:30.049Z,86.26
2018-06-01T05:50:30.051Z,86.35
2018-06-01T05:51:30.062Z,86.84
2018-06-01T05:52:30.120Z,86.44
2018-06-01T05:53:30.071Z,86.63
2018-06-01T05:54:30.123Z,86.49
2018-06-01T05:55:30.067Z,86.91
2018-06-01T05:56:30.098Z,86.9
2018-06-01T05:57:30.073Z,86.5
2018-06-01T05:58:30.113Z,86.67
2018-06-01T05:59:30.095Z,87.12
2018-06-01T06:00:30.111Z,86.43
2018-06-01T06:01:30.108Z,86.77
2018-06-01T06:02:30.077Z,86.85
2018-06-01T06:03:30.115Z,86.86
2018-06-01T06:04:30.118Z,87.38
2018-06-01T06:05:30.077Z,86.93
2018-06-01T06:06:30.107Z,87.2
2018-06-01T06:07:30.049Z,87.06
2018-06-01T06:08:30.089Z,87.43
2018-06-01T06:09:30.119Z,86.91
2018-06-01T06:10:30.077Z,86.2
2018-06-01T06:11:30.102Z,86.2
2018-06-01T06:12:30.143Z,86.49
2018-06-01T06:13:30.349Z,86.32
2018-06-01T06:14:30.095Z,86.65
2018-06-01T06:15:30.469Z,86.75
2018-06-01T06:16:30.202Z,86.74
2018-06-01T06:17:30.125Z,86.54
2018-06-01T06:18:30.132Z,86.5
2018-06-01T06:19:30.186Z,86.6
2018-06-01T06:20:30.153Z,86.54
2018-06-01T06:21:30.098Z,86.9
2018-06-01T06:22:30.148Z,86.91
2018-06-01T06:23:30.114Z,86.35
2018-06-01T06:24:30.074Z,86.34
2018-06-01T06:25:30.148Z,86.15
2018-06-01T06:26:30.066Z,86.22
2018-06-01T06:27:30.101Z,86.42
2018-06-01T06:28:30.097Z,86.36
2018-06-01T06:29:30.217Z,86.38
2018-06-01T06:30:30.085Z,86.38
2018-06-01T06:31:30.167Z,86.59
2018-06-01T06:32:30.138Z,86.57
2018-06-01T06:33:30.116Z,86.95
2018-06-01T06:34:30.267Z,86.35
2018-06-01T06:35:30.104Z,86.45
2018-06-01T06:36:30.113Z,86.04
2018-06-01T06:37:30.245Z,86.13
2018-06-01T06:38:30.183Z,85.79
2018-06-01T06:39:30.121Z,85.7
2018-06-01T06:40:30.092Z,86.15
2018-06-01T06:41:30.128Z,86.64
2018-06-01T06:42:30.083Z,86.9
2018-06-01T06:43:30.117Z,85.39
2018-06-01T06:44:30.097Z,85.79
2018-06-01T06:45:30.094Z,85.6
2018-06-01T06:46:30.221Z,85.65
2018-06-01T06:47:30.137Z,86.21
2018-06-01T06:48:30.100Z,85.75
2018-06-01T06:49:30.154Z,85.69
2018-06-01T06:50:30.115Z,85.98
2018-06-01T06:51:30.119Z,86.13
2018-06-01T06:52:30.113Z,86.1
2018-06-01T06:53:30.117Z,86.67
2018-06-01T06:54:30.155Z,87
2018-06-01T06:55:30.155Z,86.74
2018-06-01T06:56:30.191Z,86.57
2018-06-01T06:57:30.140Z,86.19
2018-06-01T06:58:30.104Z,85.2
2018-06-01T06:59:30.143Z,83.65
2018-06-01T07:00:30.143Z,84.06
2018-06-01T07:01:30.122Z,84.48
2018-06-01T07:02:30.105Z,84.88
2018-06-01T07:03:30.123Z,85.2
2018-06-01T07:04:30.920Z,84.83
2018-06-01T07:05:30.143Z,84.72
2018-06-01T07:06:30.123Z,84.6
2018-06-01T07:07:30.119Z,84.66
2018-06-01T07:08:30.101Z,84.94
2018-06-01T07:09:30.095Z,83.78
2018-06-01T07:10:30.123Z,83.95
2018-06-01T07:11:30.123Z,84.61
2018-06-01T07:12:30.300Z,84.14
2018-06-01T07:13:30.117Z,83.69
2018-06-01T07:14:30.111Z,83.85
2018-06-01T07:15:30.113Z,83.05
2018-06-01T07:16:30.124Z,83.41
2018-06-01T07:17:30.135Z,82.49
2018-06-01T07:18:30.180Z,82.08
2018-06-01T07:19:30.104Z,82.36
2018-06-01T07:20:30.134Z,82.4
2018-06-01T07:21:30.161Z,83.23
2018-06-01T07:22:30.216Z,82.03
2018-06-01T07:23:30.125Z,81.88
2018-06-01T07:24:30.231Z,82.09
2018-06-01T07:25:30.100Z,82.59
2018-06-01T07:26:30.208Z,82.45
2018-06-01T07:27:30.106Z,82.56
2018-06-01T07:28:30.137Z,81.43
2018-06-01T07:29:30.128Z,81.92
2018-06-01T07:30:30.136Z,81.55
2018-06-01T07:31:30.153Z,81.66
2018-06-01T07:32:30.189Z,81.55
2018-06-01T07:33:30.164Z,81.6
2018-06-01T07:34:30.223Z,82.37
2018-06-01T07:35:30.159Z,81.47
2018-06-01T07:36:30.147Z,82.22
2018-06-01T07:37:30.256Z,82.4
2018-06-01T07:38:30.169Z,81.91
2018-06-01T07:39:30.166Z,81.57
2018-06-01T07:40:30.131Z,82.48
2018-06-01T07:41:30.168Z,81.64
2018-06-01T07:42:30.197Z,81.45
2018-06-01T07:43:30.188Z,81.85
2018-06-01T07:44:30.181Z,80.22
2018-06-01T07:45:30.174Z,79.62
2018-06-01T07:46:30.140Z,80.64
2018-06-01T07:47:30.160Z,79.84
2018-06-01T07:48:30.137Z,80.62
2018-06-01T07:49:30.217Z,81.13
2018-06-01T07:50:30.241Z,81.05
2018-06-01T07:51:30.193Z,80.85
2018-06-01T07:52:30.164Z,80.35
2018-06-01T07:53:30.177Z,80.94
2018-06-01T07:54:30.332Z,79.81
2018-06-01T07:55:30.154Z,79.74
2018-06-01T07:56:30.182Z,79.11
2018-06-01T07:57:30.137Z,79.22
2018-06-01T07:58:30.172Z,79.1
2018-06-01T07:59:30.184Z,79.65
2018-06-01T08:00:30.161Z,79.89
2018-06-01T08:01:30.160Z,80.2
2018-06-01T08:02:30.139Z,80.79
2018-06-01T08:03:30.249Z,80.71
2018-06-01T08:04:30.144Z,80.43
2018-06-01T08:05:30.291Z,80.12
2018-06-01T08:06:30.191Z,80.48
2018-06-01T08:07:30.432Z,80.23
2018-06-01T08:08:30.135Z,79.39
2018-06-01T08:09:30.169Z,79.27
2018-06-01T08:10:30.151Z,78.7
2018-06-01T08:11:30.223Z,79.02
2018-06-01T08:12:30.141Z,78.79
2018-06-01T08:13:30.188Z,77.98
2018-06-01T08:14:30.195Z,78.43
2018-06-01T08:15:30.308Z,79.4
2018-06-01T08:16:30.345Z,78.84
2018-06-01T08:17:30.232Z,78.79
2018-06-01T08:18:30.188Z,78.83
2018-06-01T08:19:30.159Z,78.35
2018-06-01T08:20:31.467Z,77.59
2018-06-01T08:21:30.162Z,77.14
2018-06-01T08:22:30.153Z,76.9
2018-06-01T08:23:30.179Z,77.92
2018-06-01T08:24:30.175Z,77.68
2018-06-01T08:25:30.177Z,77.93
2018-06-01T08:26:30.216Z,78.15
2018-06-01T08:27:30.174Z,77.88
2018-06-01T08:28:30.169Z,78.25
2018-06-01T08:29:30.192Z,78.58
2018-06-01T08:30:30.313Z,78.32
2018-06-01T08:31:30.146Z,78.78
2018-06-01T08:32:30.181Z,78.9
2018-06-01T08:33:30.150Z,78.98
2018-06-01T08:34:30.176Z,78.19
2018-06-01T08:35:30.183Z,78.03
2018-06-01T08:36:30.793Z,77.06
2018-06-01T08:37:30.197Z,76.15
2018-06-01T08:38:30.208Z,75.88
2018-06-01T08:39:30.173Z,75.87
2018-06-01T08:40:30.181Z,76.14
2018-06-01T08:41:30.199Z,76.91
2018-06-01T08:42:30.165Z,77.63
2018-06-01T08:43:30.179Z,77.5
2018-06-01T08:44:30.181Z,76.66
2018-06-01T08:45:30.206Z,77.04
2018-06-01T08:46:30.183Z,74.45
2018-06-01T08:47:30.165Z,74.78
2018-06-01T08:48:30.168Z,75.49
2018-06-01T08:49:30.153Z,75.71
2018-06-01T08:50:30.199Z,75.13
2018-06-01T08:51:30.293Z,75.03
2018-06-01T08:52:30.338Z,75.46
2018-06-01T08:53:30.179Z,75.66
2018-06-01T08:54:30.329Z,75.71
2018-06-01T08:55:30.441Z,76.15
2018-06-01T08:56:30.348Z,75.98
2018-06-01T08:57:30.355Z,75.16
2018-06-01T08:58:30.210Z,75.55
2018-06-01T08:59:30.158Z,75.23
2018-06-01T09:00:30.279Z,74.3
2018-06-01T09:01:30.275Z,74.21
2018-06-01T09:02:30.383Z,75.11
2018-06-01T09:03:30.290Z,75.43
2018-06-01T09:04:30.401Z,74.81
2018-06-01T09:05:30.200Z,75.04
2018-06-01T09:06:30.311Z,75.81
2018-06-01T09:07:30.315Z,75.27
2018-06-01T09:08:30.205Z,75.43
2018-06-01T09:09:30.334Z,75.89
2018-06-01T09:10:30.219Z,75.95
2018-06-01T09:11:30.351Z,75.22
2018-06-01T09:12:30.348Z,74.34
2018-06-01T09:13:30.381Z,74.35
2018-06-01T09:14:30.246Z,74.95
2018-06-01T09:15:30.371Z,74.92
2018-06-01T09:16:30.225Z,74.8
2018-06-01T09:17:30.189Z,75.67
2018-06-01T09:18:30.395Z,75.12
2018-06-01T09:19:30.508Z,74.89
2018-06-01T09:20:30.413Z,74.67
2018-06-01T09:21:30.414Z,75.31
2018-06-01T09:22:30.422Z,75.29
2018-06-01T09:23:30.208Z,74.97
2018-06-01T09:24:30.337Z,75.46
2018-06-01T09:25:30.343Z,74.84
2018-06-01T09:26:30.347Z,74.95
2018-06-01T09:27:30.351Z,75.36
2018-06-01T09:28:30.391Z,75.21
2018-06-01T09:29:30.224Z,75.68
2018-06-01T09:30:30.301Z,75.13
2018-06-01T09:31:30.379Z,74.04
2018-06-01T09:32:30.493Z,72.37
2018-06-01T09:33:30.398Z,73.18
2018-06-01T09:34:30.468Z,74.02
2018-06-01T09:35:30.198Z,74.7
2018-06-01T09:36:30.415Z,74.67
2018-06-01T09:37:30.330Z,73.37
2018-06-01T09:38:30.244Z,73.4
2018-06-01T09:39:30.329Z,73.68
2018-06-01T09:40:30.336Z,73.92
2018-06-01T09:41:30.343Z,74.21
2018-06-01T09:42:30.456Z,74.25
2018-06-01T09:43:30.518Z,73.81
2018-06-01T09:44:30.374Z,73.9
2018-06-01T09:45:30.479Z,73.63
2018-06-01T09:46:30.379Z,73.03
2018-06-01T09:47:30.281Z,73.39
2018-06-01T09:48:30.290Z,73.82
2018-06-01T09:49:30.298Z,74.54
2018-06-01T09:50:30.409Z,74.09
2018-06-01T09:51:30.415Z,73.74
2018-06-01T09:52:30.346Z,73.28
2018-06-01T09:53:30.322Z,74
2018-06-01T09:54:30.329Z,73.79
2018-06-01T09:55:30.336Z,73.35
2018-06-01T09:56:30.343Z,73.65
2018-06-01T09:57:30.375Z,73.87
2018-06-01T09:58:30.205Z,73.61
2018-06-01T09:59:30.369Z,72.74
2018-06-01T10:00:30.376Z,72.07
2018-06-01T10:01:30.216Z,72.27
2018-06-01T10:02:30.386Z,72.14
2018-06-01T10:03:30.287Z,72.05
2018-06-01T10:04:30.400Z,72.61
2018-06-01T10:05:30.411Z,72.98
2018-06-01T10:06:30.416Z,73.31
2018-06-01T10:07:30.365Z,74.01
2018-06-01T10:08:30.308Z,73.99
2018-06-01T10:09:30.536Z,72.61
2018-06-01T10:10:30.216Z,72.4
2018-06-01T10:11:30.227Z,72.65
2018-06-01T10:12:30.351Z,73.38
2018-06-01T10:13:30.325Z,73.6
2018-06-01T10:14:30.283Z,72.24
2018-06-01T10:15:30.377Z,72.95
2018-06-01T10:16:30.377Z,70.79
2018-06-01T10:17:30.284Z,71.3
2018-06-01T10:18:30.392Z,71.49
2018-06-01T10:19:30.218Z,71.3
2018-06-01T10:20:30.268Z,70.79
2018-06-01T10:21:30.315Z,71.07
2018-06-01T10:22:30.353Z,71.74
2018-06-01T10:23:30.390Z,70.38
2018-06-01T10:24:30.436Z,70.26
2018-06-01T10:25:30.217Z,70.8
2018-06-01T10:26:30.259Z,70.58
2018-06-01T10:27:30.353Z,70.87
2018-06-01T10:28:30.564Z,69.83
2018-06-01T10:29:30.235Z,68.48
2018-06-01T10:30:30.378Z,68.08
2018-06-01T10:31:30.266Z,68.47
2018-06-01T10:32:30.279Z,68.24
2018-06-01T10:33:30.419Z,67.67
2018-06-01T10:34:30.408Z,68.77
2018-06-01T10:35:30.320Z,69.33
2018-06-01T10:36:30.624Z,69.62
2018-06-01T10:37:30.222Z,70.13
2018-06-01T10:38:30.241Z,69.49
2018-06-01T10:39:30.379Z,69.09
2018-06-01T10:40:30.234Z,68.43
2018-06-01T10:41:30.255Z,68.39
2018-06-01T10:42:30.460Z,68.5
2018-06-01T10:43:30.241Z,67.87
2018-06-01T10:44:30.413Z,67.03
2018-06-01T10:45:30.375Z,67.05
2018-06-01T10:46:30.383Z,67.67
2018-06-01T10:47:30.247Z,66.63
2018-06-01T10:48:30.395Z,67.24
2018-06-01T10:49:30.262Z,66.56
2018-06-01T10:50:30.249Z,65.41
2018-06-01T10:51:30.417Z,65.95
2018-06-01T10:52:30.422Z,66.11
2018-06-01T10:53:30.325Z,67.43
2018-06-01T10:54:30.391Z,66.98
2018-06-01T10:55:30.245Z,66.11
2018-06-01T10:56:30.655Z,66.25
2018-06-01T10:57:30.245Z,65.01
2018-06-01T10:58:30.271Z,64.52
2018-06-01T10:59:30.372Z,66.16
2018-06-01T11:00:30.240Z,66.05
2018-06-01T11:01:30.266Z,65.87
2018-06-01T11:02:30.390Z,66.2
2018-06-01T11:03:30.279Z,67.03
2018-06-01T11:04:30.252Z,67.62
2018-06-01T11:05:30.307Z,65.32
2018-06-01T11:06:30.267Z,63.34
2018-06-01T11:07:30.249Z,64.88
2018-06-01T11:08:30.340Z,65.53
2018-06-01T11:09:30.400Z,63.44
2018-06-01T11:10:30.261Z,64.07
2018-06-01T11:11:30.458Z,62.87
2018-06-01T11:12:30.340Z,61.76
2018-06-01T11:13:30.269Z,61.62
2018-06-01T11:14:30.414Z,60.46
2018-06-01T11:15:30.267Z,62.29
2018-06-01T11:16:30.268Z,60.63
2018-06-01T11:17:30.390Z,61.07
2018-06-01T11:18:30.362Z,60.33
2018-06-01T11:19:30.403Z,61.51
2018-06-01T11:20:30.438Z,61.67
2018-06-01T11:21:30.471Z,62.07
2018-06-01T11:22:30.306Z,61
2018-06-01T11:23:30.431Z,60.09
2018-06-01T11:24:32.394Z,59.61
2018-06-01T11:25:30.323Z,59.39
2018-06-01T11:26:30.351Z,60.51
2018-06-01T11:27:30.278Z,60.26
2018-06-01T11:28:30.271Z,59.88
2018-06-01T11:29:30.487Z,60.71
2018-06-01T11:30:30.328Z,60.27
2018-06-01T11:31:30.350Z,60.54
2018-06-01T11:32:30.394Z,60.17
2018-06-01T11:33:30.354Z,60.59
2018-06-01T11:34:30.314Z,60.68
2018-06-01T11:35:30.309Z,61.25
2018-06-01T11:36:30.419Z,61.17
2018-06-01T11:37:30.275Z,58.73
2018-06-01T11:38:30.341Z,59.1
2018-06-01T11:39:30.321Z,58.31
2018-06-01T11:40:30.447Z,59.72
2018-06-01T11:41:30.349Z,56.33
2018-06-01T11:42:30.260Z,57.08
2018-06-01T11:43:30.361Z,56.41
2018-06-01T11:44:30.480Z,56.29
2018-06-01T11:45:30.280Z,56.62
2018-06-01T11:46:30.325Z,56.48
2018-06-01T11:47:30.399Z,55.85
2018-06-01T11:48:30.401Z,55.29
2018-06-01T11:49:30.283Z,56.75
2018-06-01T11:50:30.413Z,56.89
2018-06-01T11:51:30.389Z,55.91
2018-06-01T11:52:30.282Z,56.2
2018-06-01T11:53:30.543Z,55.54
2018-06-01T11:54:30.300Z,56.13
2018-06-01T11:55:31.252Z,56.72
2018-06-01T11:56:30.557Z,56.18
2018-06-01T11:57:30.461Z,57.09
2018-06-01T11:58:30.326Z,55.73
2018-06-01T11:59:30.476Z,56.02
2018-06-01T12:00:30.305Z,55.76
2018-06-01T12:01:30.289Z,54.73
2018-06-01T12:02:30.299Z,55.29
2018-06-01T12:03:30.513Z,55.24
2018-06-01T12:04:30.295Z,56.04
2018-06-01T12:05:30.521Z,57.16
2018-06-01T12:06:30.287Z,56.5
2018-06-01T12:07:30.383Z,55.76
2018-06-01T12:08:30.434Z,55.87
2018-06-01T12:09:30.295Z,54.95
2018-06-01T12:10:30.309Z,56.17
2018-06-01T12:11:30.477Z,57.1
2018-06-01T12:12:30.309Z,55.48
2018-06-01T12:13:30.312Z,56
2018-06-01T12:14:30.279Z,56.63
2018-06-01T12:15:30.377Z,57.02
2018-06-01T12:16:30.296Z,54.8
2018-06-01T12:17:30.404Z,56.38
2018-06-01T12:18:30.305Z,56.12
2018-06-01T12:19:30.315Z,55.73
2018-06-01T12:20:30.429Z,54.69
2018-06-01T12:21:30.323Z,53.4
2018-06-01T12:22:30.290Z,54.37
2018-06-01T12:23:30.433Z,54.52
2018-06-01T12:24:30.308Z,53.81
2018-06-01T12:25:30.345Z,53.14
2018-06-01T12:26:30.356Z,53.22
2018-06-01T12:27:30.297Z,54.07
2018-06-01T12:28:30.375Z,53.96
2018-06-01T12:29:30.302Z,53.44
2018-06-01T12:30:30.487Z,53.66
2018-06-01T12:31:30.335Z,52.79
2018-06-01T12:32:30.499Z,54.49
2018-06-01T12:33:30.305Z,55.54
2018-06-01T12:34:30.321Z,54.37
2018-06-01T12:35:30.415Z,54.94
2018-06-01T12:36:30.558Z,54.09
2018-06-01T12:37:30.444Z,55.16
2018-06-01T12:38:30.564Z,51.5
2018-06-01T12:39:30.379Z,52.91
2018-06-01T12:40:30.327Z,52.75
2018-06-01T12:41:30.494Z,53.42
2018-06-01T12:42:30.354Z,53.95
2018-06-01T12:43:30.365Z,53.14
2018-06-01T12:44:30.388Z,53.51
2018-06-01T12:45:30.382Z,54.77
2018-06-01T12:46:30.316Z,53.79
2018-06-01T12:47:30.497Z,52.71
2018-06-01T12:48:30.409Z,52.94
2018-06-01T12:49:30.413Z,53.09
2018-06-01T12:50:30.527Z,53.97
2018-06-01T12:51:30.421Z,53.3
2018-06-01T12:52:30.376Z,53.7
2018-06-01T12:53:30.537Z,53.42
2018-06-01T12:54:30.443Z,52.47
2018-06-01T12:55:30.555Z,53.19